createdAt,value
2018-10-19T00:01:15.634Z,33.53
2018-10-19T00:03:44.204Z,32.73
2018-10-19T00:06:12.845Z,33.70
2018-10-19T00:08:41.504Z,31.20
2018-10-19T00:11:10.134Z,31.30
2018-10-19T00:13:38.732Z,31.70
2018-10-19T00:16:07.437Z,31.53
2018-10-19T00:18:36.062Z,33.50
2018-10-19T00:21:04.694Z,32.43
2018-10-19T00:23:33.301Z,33.90
2018-10-19T00:26:01.852Z,33.07
2018-10-19T00:28:30.457Z,31.40
2018-10-19T00:30:59.099Z,32.47
2018-10-19T00:33:27.705Z,30.70
2018-10-19T00:35:56.235Z,30.87
2018-10-19T00:38:24.856Z,31.37
2018-10-19T00:40:53.425Z,33.00
2018-10-19T00:43:21.961Z,31.90
2018-10-19T00:45:50.553Z,29.00
2018-10-19T00:48:20.332Z,29.77
2018-10-19T00:50:48.944Z,28.53
2018-10-19T00:53:17.601Z,30.70
2018-10-19T00:55:46.339Z,27.40
2018-10-19T00:58:14.881Z,25.17
2018-10-19T01:00:43.806Z,25.60
2018-10-19T01:03:12.406Z,25.80
2018-10-19T01:05:41.508Z,23.33
2018-10-19T01:08:10.689Z,24.80
2018-10-19T01:10:39.260Z,21.97
2018-10-19T01:13:07.972Z,21.43
2018-10-19T01:15:36.492Z,21.57
2018-10-19T01:18:05.360Z,22.57
2018-10-19T01:20:34.017Z,21.10
2018-10-19T01:23:02.633Z,23.10
2018-10-19T01:25:31.244Z,21.73
2018-10-19T01:27:59.796Z,22.60
2018-10-19T01:30:28.494Z,21.47
2018-10-19T01:32:57.291Z,23.50
2018-10-19T01:35:26.013Z,21.70
2018-10-19T01:37:54.545Z,21.20
2018-10-19T01:40:23.207Z,17.70
2018-10-19T01:42:51.761Z,13.83
2018-10-19T01:45:20.376Z,13.50
2018-10-19T01:47:48.971Z,14.90
2018-10-19T01:50:17.531Z,16.97
2018-10-19T01:52:46.136Z,19.93
2018-10-19T01:55:14.992Z,16.73
2018-10-19T01:57:43.669Z,16.03
2018-10-19T02:00:12.301Z,14.23
2018-10-19T02:02:40.840Z,12.30
2018-10-19T02:05:09.502Z,12.33
2018-10-19T02:07:38.024Z,13.80
2018-10-19T02:10:07.468Z,13.10
2018-10-19T02:12:36.013Z,13.07
2018-10-19T02:15:04.745Z,14.80
2018-10-19T02:17:33.328Z,15.03
2018-10-19T02:20:01.882Z,17.10
2018-10-19T02:22:30.508Z,15.13
2018-10-19T02:24:59.148Z,16.03
2018-10-19T02:27:27.716Z,15.30
2018-10-19T02:29:56.227Z,14.40
2018-10-19T02:32:24.837Z,14.77
2018-10-19T02:34:53.390Z,15.43
2018-10-19T02:37:21.988Z,16.80
2018-10-19T02:39:50.557Z,18.77
2018-10-19T02:42:19.208Z,16.90
2018-10-19T02:44:47.773Z,17.30
2018-10-19T02:47:16.542Z,17.93
2018-10-19T02:49:45.137Z,18.33
2018-10-19T02:52:13.656Z,17.80
2018-10-19T02:54:42.304Z,16.00
2018-10-19T02:57:10.839Z,16.63
2018-10-19T02:59:39.357Z,15.10
2018-10-19T03:02:08.123Z,15.00
2018-10-19T03:04:36.770Z,15.70
2018-10-19T03:07:06.024Z,14.43
2018-10-19T03:09:34.593Z,14.10
2018-10-19T03:12:03.200Z,13.50
2018-10-19T03:14:31.749Z,9.07
2018-10-19T03:17:00.535Z,8.63
2018-10-19T03:19:29.040Z,7.90
2018-10-19T03:21:57.629Z,7.77
2018-10-19T03:24:26.185Z,8.50
2018-10-19T03:26:54.749Z,7.90
2018-10-19T03:29:23.328Z,7.60
2018-10-19T03:31:51.894Z,8.53
2018-10-19T03:34:20.553Z,8.70
2018-10-19T03:36:49.129Z,8.83
2018-10-19T03:39:18.387Z,8.60
2018-10-19T03:41:46.928Z,11.23
2018-10-19T03:44:15.565Z,6.50
2018-10-19T03:46:44.188Z,8.23
2018-10-19T03:49:12.823Z,8.43
2018-10-19T03:51:41.446Z,8.47
2018-10-19T03:54:10.081Z,10.67
2018-10-19T03:56:38.616Z,11.30
2018-10-19T03:59:07.246Z,10.77
2018-10-19T04:01:35.968Z,12.47
2018-10-19T04:04:04.938Z,14.20
2018-10-19T04:06:33.558Z,15.23
2018-10-19T04:09:02.523Z,16.43
2018-10-19T04:11:31.129Z,15.60
2018-10-19T04:13:59.708Z,16.37
2018-10-19T04:16:28.352Z,16.00
2018-10-19T04:18:57.000Z,16.63
2018-10-19T04:21:25.581Z,16.27
2018-10-19T04:23:54.254Z,17.63
2018-10-19T04:26:22.913Z,17.67
2018-10-19T04:28:51.529Z,18.30
2018-10-19T04:31:20.200Z,17.67
2018-10-19T04:33:48.808Z,20.80
2018-10-19T04:36:17.313Z,18.03
2018-10-19T04:38:45.912Z,19.07
2018-10-19T04:41:14.672Z,19.43
2018-10-19T04:43:43.148Z,17.77
2018-10-19T04:46:11.968Z,19.70
2018-10-19T04:48:40.550Z,19.57
2018-10-19T04:51:09.187Z,17.40
2018-10-19T04:53:37.834Z,18.93
2018-10-19T04:56:06.705Z,18.97
2018-10-19T04:58:35.525Z,20.17
2018-10-19T05:01:04.241Z,20.37
2018-10-19T05:03:32.761Z,18.13
2018-10-19T05:06:01.468Z,18.07
2018-10-19T05:08:29.982Z,18.30
2018-10-19T05:10:58.612Z,19.50
2018-10-19T05:13:27.161Z,16.90
2018-10-19T05:15:55.773Z,16.70
2018-10-19T05:18:24.337Z,15.23
2018-10-19T05:20:52.940Z,15.47
2018-10-19T05:23:21.513Z,13.60
2018-10-19T05:25:50.193Z,12.80
2018-10-19T05:28:18.741Z,12.33
2018-10-19T05:30:47.356Z,14.30
2018-10-19T05:33:16.021Z,14.10
2018-10-19T05:35:44.578Z,14.10
2018-10-19T05:38:13.158Z,12.07
2018-10-19T05:40:41.676Z,13.07
2018-10-19T05:43:10.332Z,13.83
2018-10-19T05:45:39.046Z,14.20
2018-10-19T05:48:07.612Z,14.30
2018-10-19T05:50:39.130Z,14.13
2018-10-19T05:53:10.211Z,13.67
2018-10-19T05:55:38.730Z,12.80
2018-10-19T05:58:07.317Z,13.13
2018-10-19T06:00:36.061Z,11.60
2018-10-19T06:03:04.896Z,13.73
2018-10-19T06:05:33.512Z,13.10
2018-10-19T06:08:02.110Z,12.37
2018-10-19T06:10:30.884Z,12.17
2018-10-19T06:12:59.525Z,12.70
2018-10-19T06:15:34.491Z,13.10
2018-10-19T06:18:03.136Z,13.57
2018-10-19T06:20:34.273Z,11.40
2018-10-19T06:23:04.789Z,12.53
2018-10-19T06:25:40.323Z,11.93
2018-10-19T06:28:08.920Z,10.93
2018-10-19T06:30:37.556Z,12.70
2018-10-19T06:33:06.152Z,13.77
2018-10-19T06:35:34.697Z,12.43
2018-10-19T06:38:03.328Z,11.80
2018-10-19T06:40:31.950Z,12.77
2018-10-19T06:43:00.604Z,12.13
2018-10-19T06:45:29.348Z,10.43
2018-10-19T06:47:58.056Z,12.27
2018-10-19T06:50:26.589Z,11.90
2018-10-19T06:52:55.149Z,11.80
2018-10-19T06:55:23.766Z,11.27
2018-10-19T06:57:52.344Z,12.07
2018-10-19T07:00:20.941Z,11.20
2018-10-19T07:02:49.786Z,11.73
2018-10-19T07:05:18.329Z,10.57
2018-10-19T07:07:46.951Z,10.07
2018-10-19T07:10:15.592Z,10.23
2018-10-19T07:12:44.247Z,9.00
2018-10-19T07:15:13.338Z,11.13
2018-10-19T07:17:41.980Z,9.60
2018-10-19T07:20:11.537Z,9.57
2018-10-19T07:22:40.500Z,10.40
2018-10-19T07:25:09.564Z,13.97
2018-10-19T07:27:38.281Z,14.17
2018-10-19T07:30:07.378Z,15.23
2018-10-19T07:32:36.009Z,15.97
2018-10-19T07:35:04.949Z,15.53
2018-10-19T07:37:33.673Z,17.17
2018-10-19T07:40:02.373Z,14.63
2018-10-19T07:42:31.079Z,14.80
2018-10-19T07:44:59.769Z,13.40
2018-10-19T07:47:28.463Z,14.10
2018-10-19T07:49:57.379Z,13.83
2018-10-19T07:52:26.021Z,13.83
2018-10-19T07:54:54.553Z,16.20
2018-10-19T07:57:23.280Z,12.87
2018-10-19T07:59:51.916Z,14.83
2018-10-19T08:02:20.504Z,13.57
2018-10-19T08:04:49.124Z,12.83
2018-10-19T08:07:17.845Z,14.07
2018-10-19T08:09:46.426Z,15.80
2018-10-19T08:12:15.100Z,14.77
2018-10-19T08:14:43.802Z,16.47
2018-10-19T08:17:12.464Z,15.00
2018-10-19T08:19:40.972Z,15.63
2018-10-19T08:22:09.889Z,16.47
2018-10-19T08:24:38.488Z,15.97
2018-10-19T08:27:07.075Z,16.57
2018-10-19T08:29:35.944Z,17.53
2018-10-19T08:32:04.683Z,16.23
2018-10-19T08:34:33.213Z,16.77
2018-10-19T08:37:01.900Z,18.73
2018-10-19T08:39:30.509Z,17.87
2018-10-19T08:41:59.165Z,19.03
2018-10-19T08:44:27.769Z,18.60
2018-10-19T08:46:56.384Z,19.40
2018-10-19T08:49:24.948Z,18.40
2018-10-19T08:51:53.606Z,18.30
2018-10-19T08:54:22.425Z,23.90
2018-10-19T08:56:50.957Z,25.20
2018-10-19T08:59:19.656Z,22.97
2018-10-19T09:01:48.393Z,21.83
2018-10-19T09:04:17.050Z,23.63
2018-10-19T09:06:45.888Z,22.90
2018-10-19T09:09:14.669Z,24.77
2018-10-19T09:11:43.348Z,24.53
2018-10-19T09:14:22.948Z,25.53
2018-10-19T09:16:51.492Z,24.50
2018-10-19T09:19:20.100Z,23.77
2018-10-19T09:21:48.845Z,24.63
2018-10-19T09:24:17.517Z,21.67
2018-10-19T09:26:46.094Z,24.47
2018-10-19T09:29:15.711Z,24.53
2018-10-19T09:31:44.321Z,25.00
2018-10-19T09:34:13.126Z,23.90
2018-10-19T09:36:42.003Z,26.03
2018-10-19T09:39:14.490Z,25.43
2018-10-19T09:41:43.824Z,25.40
2018-10-19T09:44:12.433Z,23.10
2018-10-19T09:46:41.861Z,24.23
2018-10-19T09:49:13.001Z,23.70
2018-10-19T09:51:42.221Z,25.90
2018-10-19T09:54:11.914Z,25.90
2018-10-19T09:56:40.786Z,25.17
2018-10-19T09:59:09.468Z,25.30
2018-10-19T10:01:39.053Z,24.10
2018-10-19T10:04:07.885Z,23.77
2018-10-19T10:06:36.546Z,25.97
2018-10-19T10:09:08.691Z,23.10
2018-10-19T10:11:37.231Z,24.73
2018-10-19T10:14:06.581Z,22.23
2018-10-19T10:16:35.573Z,25.37
2018-10-19T10:19:04.379Z,25.07
2018-10-19T10:21:33.060Z,23.93
2018-10-19T10:24:01.778Z,24.27
2018-10-19T10:26:30.323Z,21.53
2018-10-19T10:28:58.964Z,23.77
2018-10-19T10:31:27.861Z,27.00
2018-10-19T10:33:56.452Z,22.90
2018-10-19T10:36:25.097Z,23.87
2018-10-19T10:38:53.939Z,26.67
2018-10-19T10:41:22.524Z,25.10
2018-10-19T10:43:51.277Z,25.97
2018-10-19T10:46:20.067Z,25.13
2018-10-19T10:48:48.624Z,27.90
2018-10-19T10:51:17.233Z,26.23
2018-10-19T10:53:46.152Z,20.93
2018-10-19T10:56:14.904Z,23.90
2018-10-19T10:58:43.694Z,25.17
2018-10-19T11:01:12.424Z,24.93
2018-10-19T11:03:41.025Z,24.33
2018-10-19T11:06:09.556Z,22.43
2018-10-19T11:08:38.196Z,22.43
2018-10-19T11:11:12.956Z,22.00
2018-10-19T11:13:42.722Z,25.00
2018-10-19T11:16:12.544Z,25.60
2018-10-19T11:18:41.404Z,24.77
2018-10-19T11:21:10.611Z,24.33
2018-10-19T11:23:39.225Z,24.43
2018-10-19T11:26:07.903Z,26.47
2018-10-19T11:28:36.545Z,24.47
2018-10-19T11:31:05.555Z,25.70
2018-10-19T11:33:34.119Z,23.67
2018-10-19T11:36:02.684Z,24.23
2018-10-19T11:38:31.377Z,23.77
2018-10-19T11:40:59.976Z,25.60
2018-10-19T11:43:28.641Z,24.20
2018-10-19T11:45:57.165Z,24.70
2018-10-19T11:48:25.736Z,24.13
2018-10-19T11:50:54.649Z,24.50
2018-10-19T11:53:23.460Z,24.30
2018-10-19T11:55:52.085Z,22.10
2018-10-19T11:58:20.671Z,24.10
2018-10-19T12:00:49.252Z,26.17
2018-10-19T12:03:17.895Z,23.93
2018-10-19T12:05:46.736Z,22.30
2018-10-19T12:08:15.383Z,22.20
2018-10-19T12:10:44.008Z,24.03
2018-10-19T12:13:12.883Z,23.67
2018-10-19T12:15:41.476Z,24.03
2018-10-19T12:18:10.083Z,27.20
2018-10-19T12:20:38.935Z,24.00
2018-10-19T12:23:07.613Z,23.00
2018-10-19T12:25:36.197Z,24.53
2018-10-19T12:28:05.320Z,23.73
2018-10-19T12:30:33.996Z,23.43
2018-10-19T12:33:02.623Z,23.70
2018-10-19T12:35:31.224Z,24.90
2018-10-19T12:37:59.781Z,23.73
2018-10-19T12:40:28.403Z,25.07
2018-10-19T12:42:56.989Z,25.40
2018-10-19T12:46:37.029Z,23.43
2018-10-19T12:49:06.151Z,22.63
2018-10-19T12:51:35.142Z,21.20
2018-10-19T12:54:03.853Z,23.23
2018-10-19T12:56:32.373Z,23.20
2018-10-19T12:59:00.959Z,24.23
2018-10-19T13:01:30.448Z,25.13
2018-10-19T13:03:59.798Z,25.53
2018-10-19T13:06:28.406Z,23.93
2018-10-19T13:08:57.132Z,26.00
2018-10-19T13:11:26.090Z,24.83
2018-10-19T13:13:54.880Z,23.90
2018-10-19T13:16:23.680Z,25.20
2018-10-19T13:18:52.968Z,24.97
2018-10-19T13:21:21.566Z,24.70
2018-10-19T13:23:50.276Z,24.57
2018-10-19T13:26:18.852Z,28.40
2018-10-19T13:28:47.478Z,29.70
2018-10-19T13:31:16.028Z,27.10
2018-10-19T13:33:44.833Z,26.47
2018-10-19T13:36:13.541Z,27.47
2018-10-19T13:38:42.069Z,28.60
2018-10-19T13:41:10.790Z,28.87
2018-10-19T13:43:40.163Z,28.80
2018-10-19T13:46:08.707Z,28.73
2018-10-19T13:48:37.602Z,28.83
2018-10-19T13:51:06.714Z,27.67
2018-10-19T13:53:35.256Z,28.70
2018-10-19T13:56:03.897Z,24.23
2018-10-19T13:58:32.516Z,25.43
2018-10-19T14:01:01.045Z,27.97
2018-10-19T14:03:30.137Z,27.53
2018-10-19T14:05:58.804Z,26.10
2018-10-19T14:08:27.609Z,27.37
2018-10-19T14:10:56.424Z,25.47
2018-10-19T14:13:25.414Z,26.03
2018-10-19T14:15:54.415Z,26.33
2018-10-19T14:18:23.000Z,28.00
2018-10-19T14:20:51.608Z,26.43
2018-10-19T14:23:20.234Z,25.00
2018-10-19T14:25:48.780Z,26.80
2018-10-19T14:28:17.476Z,26.17
2018-10-19T14:30:46.124Z,25.90
2018-10-19T14:33:14.974Z,24.03
2018-10-19T14:35:43.476Z,22.80
2018-10-19T14:38:12.204Z,24.50
2018-10-19T14:40:40.840Z,24.33
2018-10-19T14:43:09.477Z,24.00
2018-10-19T14:45:38.137Z,25.70
2018-10-19T14:48:07.001Z,25.80
2018-10-19T14:50:35.677Z,27.70
2018-10-19T14:53:04.334Z,27.33
2018-10-19T14:55:33.088Z,26.47
2018-10-19T14:58:01.681Z,25.10
2018-10-19T15:00:30.448Z,27.77
2018-10-19T15:02:59.290Z,25.63
2018-10-19T15:05:27.929Z,24.57
2018-10-19T15:07:56.528Z,26.30
2018-10-19T15:10:25.461Z,27.33
2018-10-19T15:12:53.849Z,24.60
2018-10-19T15:15:23.485Z,23.73
2018-10-19T15:17:52.210Z,24.33
2018-10-19T15:20:20.753Z,26.67
2018-10-19T15:22:49.472Z,23.37
2018-10-19T15:25:18.133Z,26.30
2018-10-19T15:27:47.422Z,30.10
2018-10-19T15:30:17.780Z,25.40
2018-10-19T15:32:46.349Z,24.63
2018-10-19T15:35:14.936Z,24.27
2018-10-19T15:37:43.668Z,25.83
2018-10-19T15:40:12.612Z,23.60
2018-10-19T15:42:41.404Z,25.93
2018-10-19T15:45:12.025Z,21.13
2018-10-19T15:47:40.696Z,21.53
2018-10-19T15:50:09.761Z,20.33
2018-10-19T15:52:38.489Z,20.37
2018-10-19T15:55:07.864Z,20.40
2018-10-19T15:57:36.677Z,18.50
2018-10-19T16:00:05.696Z,18.20
2018-10-19T16:02:34.214Z,20.80
2018-10-19T16:05:02.788Z,20.40
2018-10-19T16:07:31.512Z,19.57
2018-10-19T16:10:00.102Z,18.10
2018-10-19T16:12:28.658Z,19.37
2018-10-19T16:14:57.368Z,19.60
2018-10-19T16:17:25.990Z,18.93
2018-10-19T16:19:54.526Z,19.03
2018-10-19T16:22:23.283Z,17.40
2018-10-19T16:24:51.805Z,18.30
2018-10-19T16:27:20.508Z,17.20
2018-10-19T16:29:50.040Z,17.57
2018-10-19T16:32:18.594Z,15.77
2018-10-19T16:34:47.145Z,17.57
2018-10-19T16:37:16.809Z,18.00
2018-10-19T16:39:45.712Z,18.87
2018-10-19T16:42:14.641Z,19.50
2018-10-19T16:44:44.654Z,18.30
2018-10-19T16:47:13.921Z,21.03
2018-10-19T16:49:42.471Z,17.87
2018-10-19T16:52:11.229Z,16.53
2018-10-19T16:54:39.764Z,17.43
2018-10-19T16:57:08.404Z,17.40
2018-10-19T16:59:37.163Z,18.33
2018-10-19T17:02:06.208Z,20.80
2018-10-19T17:04:34.803Z,19.40
2018-10-19T17:07:03.867Z,20.03
2018-10-19T17:09:32.521Z,19.40
2018-10-19T17:12:01.203Z,20.60
2018-10-19T17:14:29.792Z,22.50
2018-10-19T17:16:58.417Z,20.57
2018-10-19T17:19:27.058Z,20.47
2018-10-19T17:21:55.747Z,20.80
2018-10-19T17:24:24.496Z,20.87
2018-10-19T17:26:53.166Z,19.50
2018-10-19T17:29:22.141Z,19.93
2018-10-19T17:31:50.955Z,21.23
2018-10-19T17:34:19.598Z,21.40
2018-10-19T17:36:48.333Z,21.03
2018-10-19T17:39:17.040Z,19.90
2018-10-19T17:41:45.533Z,21.40
2018-10-19T17:44:14.224Z,21.30
2018-10-19T17:46:43.046Z,19.93
2018-10-19T17:49:11.664Z,24.03
2018-10-19T17:51:40.182Z,22.30
2018-10-19T17:54:08.817Z,20.97
2018-10-19T17:56:37.485Z,20.40
2018-10-19T17:59:06.235Z,20.50
2018-10-19T18:01:35.116Z,21.03
2018-10-19T18:04:03.804Z,19.83
2018-10-19T18:06:33.562Z,19.93
2018-10-19T18:09:02.140Z,21.70
2018-10-19T18:11:30.861Z,21.80
2018-10-19T18:13:59.397Z,21.43
2018-10-19T18:16:28.065Z,21.93
2018-10-19T18:18:56.692Z,20.77
2018-10-19T18:21:25.531Z,21.47
2018-10-19T18:23:54.176Z,21.03
2018-10-19T18:26:22.745Z,21.47
2018-10-19T18:28:51.533Z,21.13
2018-10-19T18:31:20.400Z,21.00
2018-10-19T18:33:48.926Z,21.60
2018-10-19T18:36:17.618Z,21.87
2018-10-19T18:38:46.155Z,21.17
2018-10-19T18:41:14.858Z,23.93
2018-10-19T18:43:43.635Z,22.27
2018-10-19T18:46:12.266Z,24.90
2018-10-19T18:48:40.942Z,24.90
2018-10-19T18:51:09.648Z,25.10
2018-10-19T18:53:38.745Z,24.77
2018-10-19T18:56:07.772Z,23.63
2018-10-19T18:58:36.830Z,25.23
2018-10-19T19:01:05.954Z,25.60
2018-10-19T19:03:35.185Z,23.63
2018-10-19T19:06:04.262Z,22.60
2018-10-19T19:08:33.264Z,23.90
2018-10-19T19:11:02.648Z,26.73
2018-10-19T19:13:32.785Z,26.07
2018-10-19T19:16:02.348Z,26.07
2018-10-19T19:18:31.475Z,24.67
2018-10-19T19:21:00.614Z,24.63
2018-10-19T19:23:29.775Z,25.93
2018-10-19T19:26:04.070Z,25.57
2018-10-19T19:28:33.140Z,23.87
2018-10-19T19:31:02.533Z,24.20
2018-10-19T19:33:36.812Z,24.93
2018-10-19T19:36:06.194Z,24.37
2018-10-19T19:38:35.282Z,24.53
2018-10-19T19:41:09.518Z,25.23
2018-10-19T19:43:38.417Z,24.70
2018-10-19T19:46:07.466Z,28.70
2018-10-19T19:48:41.650Z,28.03
2018-10-19T19:51:14.688Z,24.60
2018-10-19T19:53:43.936Z,24.33
2018-10-19T19:56:13.396Z,24.23
2018-10-19T19:58:42.321Z,27.80
2018-10-19T20:01:11.809Z,25.83
2018-10-19T20:03:40.789Z,25.90
2018-10-19T20:06:10.070Z,24.40
2018-10-19T20:08:39.601Z,25.47
2018-10-19T20:11:09.156Z,26.43
2018-10-19T20:13:38.666Z,28.90
2018-10-19T20:16:07.724Z,28.07
2018-10-19T20:18:36.712Z,28.57
2018-10-19T20:21:06.131Z,27.70
2018-10-19T20:23:35.151Z,28.20
2018-10-19T20:26:03.953Z,28.30
2018-10-19T20:28:32.917Z,27.20
2018-10-19T20:31:01.777Z,29.30
2018-10-19T20:33:30.404Z,29.37
2018-10-19T20:35:59.117Z,30.60
2018-10-19T20:38:27.811Z,29.30
2018-10-19T20:40:56.564Z,27.87
2018-10-19T20:43:25.189Z,28.30
2018-10-19T20:45:53.755Z,27.93
2018-10-19T20:48:22.574Z,28.83
2018-10-19T20:50:51.317Z,28.23
2018-10-19T20:53:19.865Z,27.43
2018-10-19T20:55:48.533Z,27.67
2018-10-19T20:58:17.176Z,28.80
2018-10-19T21:00:45.806Z,28.77
2018-10-19T21:03:14.611Z,27.37
2018-10-19T21:05:43.305Z,26.87
2018-10-19T21:08:11.904Z,29.00
2018-10-19T21:10:40.510Z,26.83
2018-10-19T21:13:09.165Z,25.27
2018-10-19T21:15:37.745Z,27.50
2018-10-19T21:18:06.637Z,26.63
2018-10-19T21:20:35.284Z,26.00
2018-10-19T21:23:03.883Z,26.97
2018-10-19T21:25:32.468Z,26.10
2018-10-19T21:28:01.284Z,25.13
2018-10-19T21:30:29.870Z,26.37
2018-10-19T21:32:58.466Z,25.27
2018-10-19T21:35:27.065Z,26.50
2018-10-19T21:37:55.620Z,28.90
2018-10-19T21:40:24.333Z,26.50
2018-10-19T21:42:53.018Z,27.73
2018-10-19T21:45:21.876Z,26.13
2018-10-19T21:47:50.706Z,26.00
2018-10-19T21:50:22.025Z,27.27
2018-10-19T21:52:52.213Z,25.17
2018-10-19T21:55:20.793Z,27.33
2018-10-19T21:57:49.464Z,23.60
2018-10-19T22:00:18.046Z,25.73
2018-10-19T22:02:46.692Z,25.50
2018-10-19T22:05:15.327Z,25.10
2018-10-19T22:07:43.914Z,25.33
2018-10-19T22:10:12.844Z,24.97
2018-10-19T22:12:41.572Z,24.07
2018-10-19T22:15:10.639Z,25.00
2018-10-19T22:17:39.217Z,25.50
2018-10-19T22:20:08.572Z,24.17
2018-10-19T22:22:37.438Z,25.53
2018-10-19T22:25:07.403Z,24.47
2018-10-19T22:27:35.973Z,24.40
2018-10-19T22:30:04.956Z,24.70
2018-10-19T22:32:33.558Z,25.90
2018-10-19T22:35:02.251Z,25.43
2018-10-19T22:37:30.861Z,23.60
2018-10-19T22:39:59.401Z,23.60
2018-10-19T22:42:28.097Z,25.40
2018-10-19T22:44:56.650Z,25.50
2018-10-19T22:47:25.185Z,26.70
2018-10-19T22:49:54.078Z,25.60
2018-10-19T22:52:22.645Z,24.50
2018-10-19T22:54:51.160Z,25.27
2018-10-19T22:57:19.745Z,24.47
2018-10-19T22:59:48.306Z,25.30
2018-10-19T23:02:16.919Z,24.47
2018-10-19T23:04:45.525Z,25.60
2018-10-19T23:07:14.155Z,24.93
2018-10-19T23:09:42.722Z,25.10
2018-10-19T23:12:11.335Z,25.00
2018-10-19T23:14:39.883Z,25.20
2018-10-19T23:17:08.477Z,26.27
2018-10-19T23:19:36.993Z,25.00
2018-10-19T23:22:05.832Z,25.00
2018-10-19T23:24:34.448Z,25.00
2018-10-19T23:27:03.097Z,23.63
2018-10-19T23:29:31.672Z,23.33
2018-10-19T23:32:00.273Z,25.83
2018-10-19T23:34:28.937Z,25.60
2018-10-19T23:36:57.598Z,26.17
2018-10-19T23:39:26.144Z,26.87
2018-10-19T23:41:54.769Z,27.57
2018-10-19T23:44:23.381Z,25.70
2018-10-19T23:46:52.305Z,27.47
2018-10-19T23:49:20.898Z,26.37
2018-10-19T23:51:49.553Z,25.40
2018-10-19T23:54:18.153Z,25.90
2018-10-19T23:56:46.796Z,23.10
2018-10-19T23:59:15.487Z,26.87
